Big Pine Key, Florida
Current Conditions -  °F | °C
As of 10:53 PM on Sunday 23 Nov 2014 (Local Time) from KMTH Reporting Station
Clear Clear  
Wind Chill: 79°   Ceiling: Unl
Heat Index: 83°   Visibility: 8mi
Dew Point: 78°   Wind: 7mph
Humidity: 97%   Direction: 150°SSE
Pressure: 29.95"   Gusts: NA
Location:  24.67°N, 81.35°W
Report Text: KMTH 240353Z AUTO 15006KT 8SM CLR 26/26 A2995 RMK AO2 SLP140 T02610256
Loading
Personal Weather Stations






























Interactive Weather Map New forecast layout! Learn more

10-Day Weather Forecast

Advertisements
Track Severe Weather on mobile